Currently 49°F in San Jacinto, California, USA
49°F
49°F / 47°F
5 mph SE
0.00"
Sunday, January 29, 2023 10:04 AM PST

San Jacinto, California Weather Summary
Last 36 Hours

Temperature Winds Hourly Humidity Dewpoint
Time Report Norm Report Norm Max Gusts Precip. Rpt. Norm Rpt. Norm Pressure
1Sun 10:04 AM  48.6°F  55°F  5 mph SE  1 mph  2 mph  0.00"  84%  50%  44°F  36°F  29.99"
Sun 10:00 AM  48.6°F  55°F  calm  1 mph  2 mph  0.00"  83%  51%  43°F  36°F  29.99"
2Sun 09:36 AM  48.7°F  53°F  calm  1 mph  none  ----  81%  54%  43°F  36°F  29.98"
Sun 09:00 AM  48.2°F  50°F  calm  1 mph  none  0.00"  84%  59%  43°F  36°F  29.98"
Sun 08:00 AM  47.1°F  44°F  calm  1 mph  none  0.00"  85%  68%  43°F  34°F  29.98"
3Sun 07:01 AM  46.6°F  42°F  calm  1 mph  none  ----  88%  72%  43°F  33°F  29.97"
Sun 07:00 AM  46.8°F  42°F  calm  1 mph  none  0.00"  88%  72%  43°F  33°F  29.97"
Sun 06:00 AM  47.1°F  42°F  calm  1 mph  none  0.00"  85%  72%  43°F  33°F  29.95"
Sun 05:00 AM  47.7°F  42°F  calm  1 mph  none  0.00"  81%  71%  42°F  33°F  29.96"
Sun 04:00 AM  48.0°F  43°F  calm  1 mph  none  0.00"  79%  71%  42°F  34°F  29.97"
Sun 03:00 AM  48.4°F  44°F  calm  1 mph  none  0.00"  78%  70%  42°F  34°F  29.98"
Sun 02:00 AM  48.0°F  45°F  calm  calm  none  0.00"  84%  69%  43°F  34°F  29.99"
Sun 01:00 AM  48.0°F  46°F  calm  1 mph  none  0.00"  85%  66%  44°F  35°F  30.00"
Sun 12:01 AM  48.4°F  47°F  calm  1 mph  7 mph  0.00"  86%  65%  44°F  35°F  30.00"
Sat 11:00 PM  49.1°F  48°F  calm  1 mph  none  0.00"  87%  62%  45°F  35°F  30.00"
Sat 10:00 PM  49.3°F  50°F  calm  1 mph  3 mph  0.00"  87%  60%  45°F  36°F  30.01"
Sat 09:00 PM  49.5°F  51°F  calm  1 mph  none  0.00"  86%  58%  45°F  36°F  30.00"
Sat 08:00 PM  49.5°F  53°F  calm  1 mph  none  0.00"  84%  54%  45°F  37°F  30.00"
Sat 07:00 PM  50.9°F  56°F  calm  1 mph  none  0.00"  80%  50%  45°F  37°F  29.98"
Sat 06:00 PM  53.1°F  58°F  calm  2 mph  8 mph  0.00"  75%  46%  45°F  37°F  29.97"
Sat 05:00 PM  57.0°F  62°F  calm  2 mph  8 mph  0.00"  63%  39%  44°F  36°F  29.95"
Sat 04:00 PM  60.4°F  65°F  calm  3 mph  none  0.00"  49%  34%  40°F  35°F  29.95"
Sat 03:00 PM  61.0°F  65°F  calm  3 mph  none  0.00"  46%  34%  39°F  35°F  29.94"
Sat 02:00 PM  60.4°F  65°F  calm  3 mph  none  0.00"  46%  34%  39°F  35°F  29.95"
Sat 01:00 PM  58.5°F  64°F  calm  2 mph  none  0.00"  50%  36%  39°F  35°F  29.97"
Sat 12:00 PM  55.8°F  62°F  calm  2 mph  none  0.00"  57%  39%  40°F  35°F  30.01"
Sat 11:00 AM  52.9°F  59°F  calm  2 mph  1 mph  0.00"  62%  43%  40°F  36°F  30.05"
Sat 10:00 AM  50.5°F  55°F  calm  1 mph  none  0.00"  56%  51%  35°F  37°F  30.06"
Sat 09:00 AM  45.1°F  50°F  calm  1 mph  none  0.00"  66%  60%  34°F  36°F  30.06"
Sat 08:00 AM  41.2°F  44°F  calm  1 mph  none  0.00"  65%  69%  30°F  35°F  30.05"
Sat 07:00 AM  35.2°F  42°F  calm  1 mph  none  0.00"  78%  72%  29°F  33°F  30.03"
Sat 06:00 AM  36.3°F  42°F  calm  1 mph  none  0.00"  78%  72%  30°F  33°F  30.02"
Sat 05:00 AM  37.2°F  43°F  calm  1 mph  3 mph  0.00"  75%  71%  30°F  34°F  30.00"
Sat 04:00 AM  38.3°F  43°F  calm  1 mph  none  0.00"  75%  71%  31°F  34°F  30.01"
Sat 03:00 AM  38.5°F  44°F  calm  1 mph  none  0.00"  74%  70%  31°F  34°F  30.01"
Sat 02:00 AM  39.7°F  45°F  calm  1 mph  none  0.00"  71%  69%  31°F  35°F  30.01"
Sat 01:00 AM  41.4°F  46°F  calm  1 mph  none  0.00"  68%  67%  31°F  35°F  30.01"
Sat 12:01 AM  42.8°F  47°F  calm  1 mph  none  0.00"  67%  65%  32°F  35°F  30.02"
Fri 11:00 PM  45.1°F  48°F  calm  1 mph  none  0.00"  63%  63%  33°F  36°F  30.03"

  1. Current weather data. No green row appears if the current weather data is also the high or low for the current day.
  2. High temperature for the current day.
  3. Low temperature for the current day.

The San Jacinto, California weather pages are a service of WeatherCurrents. San Jacinto is located in the heart of the San Jacinto Valley, near Hemet, the Soboba Casino, and at the foot of the San Jacinto Mountains.
Copyright ©2023  WeatherCurrents. All rights reserved. - Submit questions and comments - Privacy Policy

This page automatically refreshes every 10 minutes.